Silver Lake, Michigan
Current Conditions -  °F | °C
As of 2:14 AM on Sunday 26 Oct 2014 (Local Time) from KLDM Reporting Station
Clear Clear  
Wind Chill:   Ceiling: Unl
Heat Index: 10°   Visibility: 10mi
Dew Point:   Wind: 5mph
Humidity: 63%   Direction: 320°NW
Pressure: 29.9"   Gusts: NA
Location:  43.6851°N, 86.4584°W
Report Text: KLDM 260614Z AUTO 32004KT 10SM CLR 10/03 A2990 RMK AO2 T00970029
Loading
Personal Weather Stations






























Interactive Weather Map
Tropical Storm Tracking
New forecast layout! Learn more

10-Day Weather Forecast

Advertisements
Track Severe Weather on mobile